Terminal Aerodrome Forecast
Issued by NWS Albany, NY

Home | Current Version | Previous Version | Text Only | Print | Product List | Glossary On
Versions: 1 2 3 4 5 6 7 8 9 10 11 12 13 14 15 16 17 18 19 20 21 22
000
FTUS41 KALY 300520
TAFPOU
TAF
KPOU 300520Z 3006/0106 VRB03KT P6SM SCT140
     FM300800 00000KT 6SM BR BKN120
     FM301500 18007KT P6SM BKN090
     FM302100 16006KT P6SM VCSH SCT050 OVC080
     FM010300 14003KT 6SM BR VCSH BKN050 OVC080=

USA.gov is the U.S. government's official web portal to all federal, state and local government web resources and services.